Time;durP1;ratioP1;P1;durP2;ratioP2;P2;SDS_P1;SDS_P2;PMS_P1;PMS_P2;Temp;Humidity;BMP_temperature;BMP_pressure;BME280_temperature;BME280_humidity;BME280_pressure;Samples;Min_cycle;Max_cycle;Signal;HPM_P1;HPM_P2
2022/05/09 00:00:10;;;;;;;;;21.00;16.75;;;;;16.44;56.75;102217.47;5070123;27;51415;-67
2022/05/09 00:02:36;;;;;;;;;19.25;16.75;;;;;16.79;56.93;102290.69;5070069;28;50015;-70
2022/05/09 00:05:02;;;;;;;;;15.75;15.50;;;;;16.74;56.76;102287.03;5069961;28;49799;-69
2022/05/09 00:07:27;;;;;;;;;19.50;17.50;;;;;16.67;57.05;102269.16;5070200;27;49627;-71
2022/05/09 00:09:52;;;;;;;;;14.00;14.00;;;;;16.66;56.73;102277.97;5069555;27;50809;-69
2022/05/09 00:12:18;;;;;;;;;16.00;14.50;;;;;16.65;56.32;102286.81;5069960;28;49769;-68
2022/05/09 00:14:43;;;;;;;;;14.75;12.75;;;;;16.47;57.02;102274.06;5063299;28;49795;-72
2022/05/09 00:17:09;;;;;;;;;15.50;13.00;;;;;16.63;57.27;102300.91;5070087;28;49651;-69
2022/05/09 00:19:35;;;;;;;;;18.50;14.25;;;;;16.44;56.95;102274.00;5069772;28;50836;-68
2022/05/09 00:22:01;;;;;;;;;13.50;12.50;;;;;16.58;57.15;102299.03;5069797;27;49782;-70
2022/05/09 00:24:29;;;;;;;;;11.00;11.00;;;;;16.63;57.08;102296.50;5069758;27;49833;-70
2022/05/09 00:26:57;;;;;;;;;12.00;11.25;;;;;16.66;56.97;102300.97;5070532;28;49925;-68
2022/05/09 00:29:22;;;;;;;;;11.25;11.00;;;;;16.53;56.81;102276.84;5069514;28;49790;-68
2022/05/09 00:31:51;;;;;;;;;12.00;10.50;;;;;16.62;56.81;102294.72;5069781;28;49740;-72
2022/05/09 00:34:18;;;;;;;;;19.00;16.25;;;;;16.59;56.30;102292.88;5069678;27;49731;-68
2022/05/09 00:36:44;;;;;;;;;12.50;11.25;;;;;16.40;56.39;102260.66;5069888;27;49987;-68
2022/05/09 00:39:10;;;;;;;;;15.75;10.25;;;;;16.41;56.34;102279.25;5069157;28;50045;-67
2022/05/09 00:41:37;;;;;;;;;12.25;11.25;;;;;16.43;55.73;102296.09;5069456;27;49758;-68
2022/05/09 00:44:12;;;;;;;;;7.25;7.00;;;;;16.39;55.71;102290.66;5069547;28;50001;-68
2022/05/09 00:46:43;;;;;;;;;10.75;10.25;;;;;16.28;55.75;102299.28;5070401;28;49985;-69
2022/05/09 00:49:40;;;;;;;;;9.75;9.75;;;;;16.30;56.18;102299.31;5069663;28;51144;-69
2022/05/09 00:52:15;;;;;;;;;12.75;10.00;;;;;16.34;55.86;102295.88;5065946;28;49625;-68
2022/05/09 00:54:44;;;;;;;;;9.25;7.00;;;;;16.24;55.62;102283.31;5070768;28;50046;-68
2022/05/09 00:57:16;;;;;;;;;9.25;8.25;;;;;16.30;56.03;102297.56;5073402;28;49784;-69
2022/05/09 00:59:43;;;;;;;;;9.25;8.00;;;;;16.23;55.86;102273.56;5072770;27;49827;-68
2022/05/09 01:02:10;;;;;;;;;7.75;7.75;;;;;16.33;55.55;102293.22;5072978;27;49873;-68
2022/05/09 01:04:46;;;;;;;;;8.50;7.75;;;;;16.25;55.51;102285.97;5072979;27;49735;-68
2022/05/09 01:07:11;;;;;;;;;7.25;7.25;;;;;16.25;55.65;102279.78;5073218;28;49801;-68
2022/05/09 01:09:37;;;;;;;;;7.00;6.75;;;;;16.14;55.20;102279.56;5072850;27;51766;-68
2022/05/09 01:12:03;;;;;;;;;10.00;8.50;;;;;16.10;55.44;102274.13;5072763;28;49766;-68
2022/05/09 01:14:32;;;;;;;;;8.75;6.25;;;;;16.21;55.61;102291.16;5072732;27;49703;-68
2022/05/09 01:16:59;;;;;;;;;10.25;8.00;;;;;16.18;56.04;102288.44;5073082;28;49891;-68
2022/05/09 01:19:37;;;;;;;;;7.00;7.00;;;;;16.19;55.62;102292.88;5072837;28;50274;-67
2022/05/09 01:22:15;;;;;;;;;8.25;8.25;;;;;16.16;55.91;102293.72;5072787;28;49901;-69
2022/05/09 01:24:41;;;;;;;;;9.25;6.25;;;;;16.07;56.42;102276.72;5072468;28;49913;-68
2022/05/09 01:27:06;;;;;;;;;8.50;7.00;;;;;15.99;56.08;102273.91;5072761;28;50002;-68
2022/05/09 01:29:51;;;;;;;;;8.50;7.50;;;;;15.97;55.61;102270.34;5072291;28;50932;-68
2022/05/09 01:32:40;;;;;;;;;7.50;7.50;;;;;15.94;56.25;102270.28;5072332;28;49740;-71
2022/05/09 01:35:34;;;;;;;;;8.50;7.00;;;;;16.01;56.85;102274.81;5072459;27;49846;-70
2022/05/09 01:38:13;;;;;;;;;8.00;7.00;;;;;15.77;56.71;102239.84;5071563;28;49674;-68
2022/05/09 01:40:38;;;;;;;;;9.25;7.00;;;;;15.88;56.92;102283.38;5071881;28;49900;-68
2022/05/09 01:43:03;;;;;;;;;9.00;7.00;;;;;15.79;57.69;102257.56;5072079;28;49537;-69
2022/05/09 01:45:29;;;;;;;;;7.50;7.25;;;;;15.61;57.37;102233.31;5072304;28;49868;-68
2022/05/09 01:50:38;;;;;;;;;8.00;8.00;;;;;15.82;57.82;102280.56;5071778;28;50257;-68
2022/05/09 01:53:03;;;;;;;;;8.00;6.25;;;;;15.31;57.81;102199.91;5071980;28;49592;-68
2022/05/09 01:55:28;;;;;;;;;5.00;5.00;;;;;15.73;57.62;102274.22;5072007;28;49823;-69
2022/05/09 01:57:54;;;;;;;;;5.75;5.75;;;;;15.72;57.70;102272.41;5072260;28;49895;-67
2022/05/09 02:00:19;;;;;;;;;6.75;6.75;;;;;15.64;58.24;102270.47;5071734;28;58646;-67
2022/05/09 02:02:45;;;;;;;;;8.25;7.00;;;;;15.66;58.19;102276.66;5072108;28;49688;-70
2022/05/09 02:05:13;;;;;;;;;8.25;7.50;;;;;15.16;58.33;102192.53;5071496;28;49923;-68
2022/05/09 02:07:39;;;;;;;;;3.75;3.75;;;;;15.54;57.97;102252.50;5072078;28;50091;-70
2022/05/09 02:10:05;;;;;;;;;5.00;5.00;;;;;15.56;58.51;102266.69;5071469;28;50770;-68
2022/05/09 02:12:30;;;;;;;;;8.75;7.00;;;;;15.62;58.58;102282.72;5071789;28;50082;-72
2022/05/09 02:14:55;;;;;;;;;8.00;8.00;;;;;15.52;58.25;102271.00;5072331;27;50500;-69
2022/05/09 02:17:21;;;;;;;;;6.50;6.50;;;;;15.26;58.25;102225.38;5071989;27;49754;-68
2022/05/09 02:19:46;;;;;;;;;4.25;1.50;;;;;15.44;58.45;102265.53;5070272;28;51495;-68
2022/05/09 02:22:12;;;;;;;;;6.00;6.00;;;;;15.52;58.37;102278.03;5071767;28;49828;-69
2022/05/09 02:24:41;;;;;;;;;9.75;8.25;;;;;15.46;58.92;102277.03;5065230;28;49931;-70
2022/05/09 02:27:10;;;;;;;;;8.50;8.50;;;;;15.44;58.66;102277.84;5065265;28;49809;-71
2022/05/09 02:29:38;;;;;;;;;6.75;5.75;;;;;15.34;59.15;102266.13;5071350;28;49973;-68
2022/05/09 02:32:05;;;;;;;;;10.50;9.50;;;;;15.31;58.90;102265.16;5071485;27;49913;-68
2022/05/09 02:34:30;;;;;;;;;6.75;6.75;;;;;15.26;58.73;102253.59;5064870;28;49772;-68
2022/05/09 02:36:56;;;;;;;;;11.75;9.75;;;;;15.32;59.68;102273.16;5071511;28;49593;-68
2022/05/09 02:39:21;;;;;;;;;10.00;9.25;;;;;14.80;59.92;102186.28;5070949;27;49791;-70
2022/05/09 02:41:46;;;;;;;;;14.50;14.50;;;;;15.23;60.78;102275.56;5071060;28;49862;-70
2022/05/09 02:44:12;;;;;;;;;15.25;13.50;;;;;15.29;61.07;102280.13;5071312;28;49909;-71
2022/05/09 02:46:40;;;;;;;;;14.00;13.50;;;;;15.25;61.35;102271.22;5071345;28;49902;-71
2022/05/09 02:49:05;;;;;;;;;14.25;13.25;;;;;15.07;61.97;102249.59;5071139;27;50896;-68
2022/05/09 02:51:31;;;;;;;;;14.25;14.25;;;;;15.10;62.48;102262.88;5071382;28;49940;-68
2022/05/09 02:53:57;;;;;;;;;16.75;14.00;;;;;15.02;62.79;102261.78;5071000;28;49981;-71
2022/05/09 02:56:23;;;;;;;;;14.00;12.25;;;;;14.89;62.51;102234.13;5071486;28;50510;-72
2022/05/09 02:58:49;;;;;;;;;17.00;16.00;;;;;14.77;62.61;102213.53;5069532;28;52245;-68
2022/05/09 03:01:14;;;;;;;;;12.25;10.00;;;;;15.04;62.67;102262.69;5071158;27;49775;-68
2022/05/09 03:06:23;;;;;;;;;13.00;12.25;;;;;14.93;62.60;102245.66;5071252;28;49898;-71
2022/05/09 03:08:49;;;;;;;;;10.25;9.75;;;;;14.99;63.09;102261.69;5070734;28;50821;-69
2022/05/09 03:11:14;;;;;;;;;12.50;12.50;;;;;14.92;62.86;102258.00;5069222;28;49938;-70
2022/05/09 03:13:39;;;;;;;;;10.00;9.75;;;;;14.91;63.19;102256.22;5070934;28;49839;-69
2022/05/09 03:16:05;;;;;;;;;13.00;12.25;;;;;14.93;63.11;102269.47;5070236;28;49984;-68
2022/05/09 03:18:31;;;;;;;;;13.00;13.00;;;;;14.89;63.57;102261.47;5070840;28;49889;-68
2022/05/09 03:20:57;;;;;;;;;12.00;12.00;;;;;14.79;62.96;102242.66;5070696;28;49717;-69
2022/05/09 03:23:22;;;;;;;;;14.75;12.50;;;;;14.78;63.10;102251.44;5070892;28;49729;-68
2022/05/09 03:25:48;;;;;;;;;10.75;10.25;;;;;14.73;63.74;102239.84;5071182;28;49903;-67
2022/05/09 03:28:19;;;;;;;;;15.00;14.50;;;;;14.69;63.78;102248.56;5070989;27;50868;-68
2022/05/09 03:30:45;;;;;;;;;13.75;12.75;;;;;14.76;63.67;102261.97;5070635;28;49727;-67
2022/05/09 03:33:11;;;;;;;;;15.00;13.50;;;;;14.71;64.45;102258.31;5070701;27;50123;-70
2022/05/09 03:35:37;;;;;;;;;12.75;11.50;;;;;14.62;64.63;102243.94;5070695;28;49740;-68
2022/05/09 03:38:03;;;;;;;;;13.50;12.00;;;;;14.53;64.14;102232.25;5070600;28;49754;-69
2022/05/09 03:40:28;;;;;;;;;13.25;12.75;;;;;14.67;64.80;102259.09;5070256;28;49928;-69
2022/05/09 03:42:54;;;;;;;;;15.00;14.25;;;;;14.53;64.91;102242.81;5070106;28;49901;-68
2022/05/09 03:45:19;;;;;;;;;13.75;12.50;;;;;14.08;64.82;102170.16;5070731;28;49802;-67
2022/05/09 03:47:44;;;;;;;;;10.75;10.75;;;;;14.50;65.22;102257.72;5070320;28;49651;-68
2022/05/09 03:50:12;;;;;;;;;12.50;10.50;;;;;14.49;65.35;102262.09;5070325;28;49794;-69
2022/05/09 03:52:38;;;;;;;;;15.75;14.50;;;;;14.41;65.04;102246.84;5070148;28;49807;-68
2022/05/09 03:55:04;;;;;;;;;11.50;11.50;;;;;14.39;65.76;102253.84;5070197;28;50076;-68
2022/05/09 03:57:30;;;;;;;;;13.25;12.75;;;;;14.33;65.03;102234.31;5069980;28;50633;-71
2022/05/09 03:59:55;;;;;;;;;12.75;12.00;;;;;14.32;65.48;102236.91;5070198;28;49671;-67
2022/05/09 04:02:21;;;;;;;;;14.75;14.75;;;;;14.36;65.82;102248.44;5070257;28;50227;-68
2022/05/09 04:04:46;;;;;;;;;13.00;11.00;;;;;14.38;66.24;102258.22;5069111;28;49818;-69
2022/05/09 04:07:12;;;;;;;;;13.75;12.75;;;;;14.36;65.65;102243.16;5070397;28;51065;-71
2022/05/09 04:09:37;;;;;;;;;11.50;11.50;;;;;14.35;66.02;102250.19;5070050;27;49861;-68
2022/05/09 04:12:03;;;;;;;;;13.25;11.50;;;;;14.22;65.86;102238.38;5069919;28;50017;-68
2022/05/09 04:17:14;;;;;;;;;13.25;12.25;;;;;14.13;65.74;102221.38;5069842;28;49840;-68
2022/05/09 04:19:39;;;;;;;;;13.50;12.00;;;;;14.21;65.39;102235.72;5069894;28;49749;-67
2022/05/09 04:22:05;;;;;;;;;11.50;11.00;;;;;14.31;65.92;102253.59;5069945;28;50045;-68
2022/05/09 04:24:30;;;;;;;;;11.25;10.00;;;;;14.32;65.54;102256.28;5069886;28;50137;-68
2022/05/09 04:26:57;;;;;;;;;15.50;12.50;;;;;14.16;65.84;102229.38;5070236;27;49770;-71
2022/05/09 04:29:22;;;;;;;;;13.50;12.25;;;;;14.09;65.75;102214.19;5073466;28;49802;-68
2022/05/09 04:31:47;;;;;;;;;13.75;11.75;;;;;14.16;65.81;102232.91;5073352;28;49797;-69
2022/05/09 04:34:13;;;;;;;;;15.00;11.00;;;;;14.26;65.51;102244.63;5073584;27;50009;-67
2022/05/09 04:36:39;;;;;;;;;12.50;12.50;;;;;14.22;65.69;102240.13;5073739;28;50837;-68
2022/05/09 04:39:05;;;;;;;;;14.25;12.50;;;;;14.29;65.84;102264.13;5072895;28;49716;-68
2022/05/09 04:41:32;;;;;;;;;13.25;12.25;;;;;14.30;65.90;102257.09;5073317;28;49837;-67
2022/05/09 04:43:58;;;;;;;;;12.50;11.75;;;;;14.18;66.12;102232.94;5073292;27;49747;-68
2022/05/09 04:46:23;;;;;;;;;13.25;12.75;;;;;14.14;65.88;102236.38;5073070;28;50648;-70
2022/05/09 04:48:48;;;;;;;;;15.00;14.50;;;;;14.26;66.22;102250.81;5073191;28;49820;-68
2022/05/09 04:51:15;;;;;;;;;20.00;13.50;;;;;14.22;65.75;102242.78;5073118;28;49937;-69
2022/05/09 04:53:41;;;;;;;;;17.25;16.75;;;;;14.24;66.20;102247.25;5073162;28;49957;-69
2022/05/09 04:56:06;;;;;;;;;11.25;11.25;;;;;14.33;66.14;102258.09;5072673;28;51062;-72
2022/05/09 04:58:32;;;;;;;;;16.50;14.25;;;;;14.33;66.29;102255.44;5071680;28;49782;-68
2022/05/09 05:00:58;;;;;;;;;14.25;14.25;;;;;14.39;66.54;102257.38;5071868;28;49868;-69
2022/05/09 05:03:23;;;;;;;;;18.00;13.00;;;;;14.38;65.90;102258.22;5073265;28;49942;-68
2022/05/09 05:05:52;;;;;;;;;11.25;11.25;;;;;14.21;66.40;102219.84;5072874;28;49753;-68
2022/05/09 05:08:18;;;;;;;;;14.00;13.50;;;;;14.28;66.22;102232.38;5072702;28;49788;-69
2022/05/09 05:10:43;;;;;;;;;12.00;11.00;;;;;14.46;66.25;102263.75;5072923;28;49728;-71
2022/05/09 05:13:09;;;;;;;;;11.00;10.50;;;;;14.35;66.04;102236.97;5066282;28;50046;-69
2022/05/09 05:15:34;;;;;;;;;15.50;14.25;;;;;14.49;66.37;102263.84;5072655;28;50047;-67
2022/05/09 05:18:00;;;;;;;;;14.25;14.00;;;;;14.42;66.36;102243.34;5072776;28;49864;-67
2022/05/09 05:20:25;;;;;;;;;13.75;13.75;;;;;14.51;66.57;102259.50;5072904;28;49965;-67
2022/05/09 05:22:51;;;;;;;;;19.25;17.00;;;;;14.50;66.16;102245.41;5072863;28;50067;-67
2022/05/09 05:25:20;;;;;;;;;17.50;17.25;;;;;14.46;65.80;102237.31;5072286;28;50661;-68
2022/05/09 05:27:47;;;;;;;;;16.25;13.75;;;;;14.66;66.56;102267.84;5072486;28;49770;-68
2022/05/09 05:30:13;;;;;;;;;17.75;14.50;;;;;14.62;65.89;102250.13;5072603;28;49678;-67
2022/05/09 05:32:41;;;;;;;;;15.50;11.75;;;;;14.71;65.50;102262.69;5072918;27;49909;-67
2022/05/09 05:35:10;;;;;;;;;17.00;15.25;;;;;14.75;65.74;102265.47;5072514;27;50280;-67
2022/05/09 05:37:35;;;;;;;;;16.50;13.50;;;;;14.74;65.40;102253.09;5072575;28;49813;-71
2022/05/09 05:40:01;;;;;;;;;15.00;15.00;;;;;14.79;65.27;102259.41;5071415;28;50059;-68
2022/05/09 05:42:28;;;;;;;;;16.50;15.75;;;;;14.86;65.07;102263.09;5072482;27;49893;-71
2022/05/09 05:44:53;;;;;;;;;20.00;16.25;;;;;14.92;64.82;102260.63;5072059;28;51102;-72
2022/05/09 05:47:20;;;;;;;;;16.75;14.75;;;;;14.79;64.52;102245.31;5072243;28;49884;-71
2022/05/09 05:49:46;;;;;;;;;23.75;21.75;;;;;14.94;63.61;102251.00;5072407;28;49847;-67
2022/05/09 05:52:12;;;;;;;;;18.00;17.25;;;;;15.02;63.46;102265.31;5072387;28;49820;-67
2022/05/09 05:54:43;;;;;;;;;18.25;18.00;;;;;15.09;62.84;102274.31;5071919;28;50824;-69
2022/05/09 05:57:20;;;;;;;;;19.00;17.50;;;;;15.07;63.79;102261.06;5072246;28;49755;-67
2022/05/09 05:59:57;;;;;;;;;21.50;18.50;;;;;15.15;62.91;102275.38;5070880;28;49723;-68
2022/05/09 06:02:23;;;;;;;;;22.00;19.00;;;;;14.70;63.04;102181.63;5072233;27;49716;-68
2022/05/09 06:04:49;;;;;;;;;20.00;17.50;;;;;15.15;62.66;102262.16;5072228;28;51051;-69
2022/05/09 06:07:16;;;;;;;;;18.75;18.00;;;;;15.26;62.47;102275.66;5072125;28;49830;-72
2022/05/09 06:09:44;;;;;;;;;20.00;19.00;;;;;15.34;62.06;102282.00;5071867;28;49803;-69
2022/05/09 06:12:10;;;;;;;;;17.75;17.75;;;;;15.31;61.82;102279.28;5072154;28;49841;-69
2022/05/09 06:14:37;;;;;;;;;15.25;15.25;;;;;15.44;62.22;102294.66;5071307;27;51436;-69
2022/05/09 06:17:06;;;;;;;;;18.00;14.00;;;;;15.40;62.08;102276.88;5072286;27;49998;-68
2022/05/09 06:19:32;;;;;;;;;19.25;17.50;;;;;15.38;62.07;102267.13;5071894;28;49858;-68
2022/05/09 06:21:59;;;;;;;;;15.00;15.00;;;;;15.48;61.88;102273.53;5072224;28;49837;-69
2022/05/09 06:24:25;;;;;;;;;22.00;18.00;;;;;15.05;61.28;102193.97;5071249;28;50640;-70
2022/05/09 06:26:50;;;;;;;;;19.00;15.75;;;;;15.42;61.38;102259.28;5071712;28;49750;-69
2022/05/09 06:29:16;;;;;;;;;15.25;14.00;;;;;15.56;60.81;102271.97;5071392;27;49798;-68
2022/05/09 06:31:41;;;;;;;;;18.50;16.50;;;;;15.66;60.47;102289.91;5071941;28;49935;-69
2022/05/09 06:34:11;;;;;;;;;23.50;19.50;;;;;15.60;60.49;102276.47;5071283;28;50052;-68
2022/05/09 06:36:38;;;;;;;;;21.75;20.00;;;;;15.75;60.68;102295.44;5071702;27;49859;-68
2022/05/09 06:39:04;;;;;;;;;17.25;16.75;;;;;15.73;59.65;102276.88;5069631;28;49684;-69
2022/05/09 06:41:30;;;;;;;;;18.50;16.75;;;;;15.74;59.21;102275.09;5071597;28;49640;-69
2022/05/09 06:43:55;;;;;;;;;17.50;15.75;;;;;15.78;59.55;102278.72;5070876;27;49877;-67
2022/05/09 06:46:21;;;;;;;;;21.50;16.25;;;;;15.77;59.49;102267.22;5071290;28;49851;-68
2022/05/09 06:48:46;;;;;;;;;22.50;21.25;;;;;15.98;58.66;102286.25;5071920;27;50021;-70
2022/05/09 06:51:12;;;;;;;;;19.50;17.75;;;;;15.58;58.74;102226.16;5071428;28;49917;-68
2022/05/09 06:53:37;;;;;;;;;21.00;20.25;;;;;16.05;58.38;102294.34;5070611;28;49726;-68
2022/05/09 06:56:04;;;;;;;;;21.50;20.25;;;;;16.04;58.74;102280.22;5070911;27;49775;-68
2022/05/09 06:58:29;;;;;;;;;21.75;18.50;;;;;16.26;58.15;102302.78;5071070;28;49743;-68
2022/05/09 07:00:54;;;;;;;;;20.25;19.50;;;;;15.84;57.65;102232.09;5071288;28;49892;-68
2022/05/09 07:03:20;;;;;;;;;19.00;17.25;;;;;16.07;57.62;102255.53;5071074;28;50698;-68
2022/05/09 07:05:47;;;;;;;;;18.00;17.50;;;;;16.09;57.32;102264.41;5071004;28;49778;-69
2022/05/09 07:08:13;;;;;;;;;24.00;19.25;;;;;16.25;57.12;102270.09;5071065;27;49719;-68
2022/05/09 07:10:39;;;;;;;;;25.75;21.00;;;;;16.37;57.44;102258.84;5070644;28;49960;-69
2022/05/09 07:13:05;;;;;;;;;24.50;21.25;;;;;16.64;56.70;102297.38;5069132;28;52641;-69
2022/05/09 07:15:34;;;;;;;;;24.00;21.25;;;;;16.51;56.49;102273.28;5071018;28;49874;-68
2022/05/09 07:18:00;;;;;;;;;21.50;20.50;;;;;16.66;55.99;102287.69;5070693;28;49902;-68
2022/05/09 07:20:28;;;;;;;;;20.75;20.50;;;;;16.76;55.99;102309.16;5071112;28;49694;-68
2022/05/09 07:22:56;;;;;;;;;20.25;18.25;;;;;16.88;55.37;102303.19;5069265;28;51605;-68
2022/05/09 07:25:23;;;;;;;;;19.75;16.75;;;;;16.92;54.88;102304.16;5070571;28;49808;-69
2022/05/09 07:27:49;;;;;;;;;20.75;18.25;;;;;16.93;54.76;102290.94;5070774;28;49720;-69
2022/05/09 07:30:18;;;;;;;;;24.00;19.50;;;;;17.02;54.53;102303.47;5070695;28;49716;-68
2022/05/09 07:32:44;;;;;;;;;20.75;19.25;;;;;17.04;54.50;102305.28;5070217;28;49962;-68
2022/05/09 07:35:12;;;;;;;;;16.00;15.50;;;;;17.07;54.14;102300.03;5070377;27;49859;-68
2022/05/09 07:37:38;;;;;;;;;25.50;22.00;;;;;17.12;54.16;102295.72;5070643;28;49886;-72
2022/05/09 07:40:05;;;;;;;;;21.00;18.00;;;;;17.02;54.03;102263.69;5070384;28;49765;-69
2022/05/09 07:42:31;;;;;;;;;17.75;16.50;;;;;17.12;53.83;102271.84;5068795;28;51032;-69
2022/05/09 07:44:57;;;;;;;;;20.25;17.50;;;;;17.32;53.60;102297.81;5070551;28;49754;-69
2022/05/09 07:47:23;;;;;;;;;18.25;15.50;;;;;17.40;53.39;102298.84;5070517;28;49732;-69
2022/05/09 07:49:50;;;;;;;;;17.00;17.00;;;;;17.44;53.43;102295.38;5070455;28;49972;-67
2022/05/09 07:52:15;;;;;;;;;21.50;19.25;;;;;17.43;52.86;102272.34;5070240;28;49844;-69
2022/05/09 07:54:41;;;;;;;;;19.00;18.00;;;;;17.46;52.81;102283.91;5068565;28;49818;-70
2022/05/09 07:57:06;;;;;;;;;15.50;15.50;;;;;17.51;52.96;102276.03;5070340;28;49827;-69
2022/05/09 07:59:31;;;;;;;;;22.25;20.50;;;;;17.56;52.76;102257.50;5070448;28;49818;-69
2022/05/09 08:01:57;;;;;;;;;22.00;21.00;;;;;17.47;52.96;102229.06;5069641;28;50426;-72
2022/05/09 08:04:23;;;;;;;;;22.50;21.50;;;;;17.29;52.72;102188.97;5070238;28;49744;-70
2022/05/09 08:06:48;;;;;;;;;20.75;17.00;;;;;17.77;52.37;102257.00;5070052;27;49737;-70
2022/05/09 08:09:14;;;;;;;;;23.75;22.75;;;;;17.82;52.15;102273.88;5069723;28;49672;-71
2022/05/09 08:11:39;;;;;;;;;24.75;19.00;;;;;17.85;52.12;102282.78;5069899;28;49787;-72
2022/05/09 08:14:06;;;;;;;;;23.75;16.75;;;;;17.84;52.00;102264.16;5069984;28;49901;-69
2022/05/09 08:16:32;;;;;;;;;18.75;17.50;;;;;17.77;51.76;102247.28;5070268;27;49771;-68
2022/05/09 08:18:58;;;;;;;;;22.00;19.75;;;;;17.94;51.15;102263.44;5070358;27;49776;-68
2022/05/09 08:21:24;;;;;;;;;18.75;16.50;;;;;18.06;51.95;102284.88;5069841;28;50822;-69
2022/05/09 08:23:51;;;;;;;;;22.25;19.50;;;;;18.09;51.74;102271.63;5069665;28;50268;-70
2022/05/09 08:26:21;;;;;;;;;19.25;15.50;;;;;18.07;51.97;102245.91;5069800;28;49730;-69
2022/05/09 08:28:47;;;;;;;;;13.75;13.75;;;;;18.20;51.88;102267.34;5070031;28;49609;-68
2022/05/09 08:31:18;;;;;;;;;18.50;15.75;;;;;18.32;51.67;102277.25;5070086;27;50370;-68
2022/05/09 08:33:44;;;;;;;;;19.75;17.75;;;;;18.36;51.14;102264.91;5069738;28;49668;-70
2022/05/09 08:36:09;;;;;;;;;17.00;16.00;;;;;18.28;51.23;102246.19;5069824;28;49767;-69
2022/05/09 08:38:34;;;;;;;;;30.00;18.75;;;;;18.30;51.02;102247.97;5069607;28;49923;-68
2022/05/09 08:41:15;;;;;;;;;19.75;19.00;;;;;18.51;51.07;102262.41;5069666;28;49867;-71
2022/05/09 08:43:50;;;;;;;;;17.75;16.75;;;;;18.58;51.06;102269.59;5069414;28;49755;-71
2022/05/09 08:46:31;;;;;;;;;22.00;17.50;;;;;18.46;50.98;102240.22;5068275;28;49727;-73
2022/05/09 08:49:25;;;;;;;;;20.25;19.25;;;;;18.28;50.86;102190.38;5069876;27;49775;-69
2022/05/09 08:52:24;;;;;;;;;20.50;17.75;;;;;18.83;51.07;102265.50;5069404;28;49664;-72
2022/05/09 08:54:51;;;;;;;;;22.75;19.75;;;;;18.82;50.57;102258.41;5069256;28;49897;-69
2022/05/09 08:57:40;;;;;;;;;15.75;14.25;;;;;18.69;50.99;102217.44;5069736;28;49727;-70
2022/05/09 09:00:12;;;;;;;;;17.25;16.00;;;;;19.11;50.46;102266.66;5057685;28;50491;-70
2022/05/09 09:02:47;;;;;;;;;21.00;17.50;;;;;19.06;50.21;102245.31;5069298;27;50920;-69
2022/05/09 09:05:22;;;;;;;;;22.50;21.50;;;;;19.20;50.60;102257.84;5069283;28;49901;-69
2022/05/09 09:07:48;;;;;;;;;21.25;20.25;;;;;19.33;50.48;102255.31;5069726;27;49744;-70
2022/05/09 09:10:39;;;;;;;;;19.50;17.25;;;;;19.41;50.42;102256.28;5069474;28;50027;-71
2022/05/09 09:13:23;;;;;;;;;23.25;21.00;;;;;19.42;49.97;102255.41;5069233;28;49954;-69
2022/05/09 09:16:23;;;;;;;;;19.00;19.00;;;;;19.45;49.43;102249.19;5071152;28;49864;-68
2022/05/09 09:18:55;;;;;;;;;21.25;20.25;;;;;19.53;49.37;102252.81;5072931;28;49934;-69
2022/05/09 09:21:35;;;;;;;;;21.25;17.25;;;;;19.61;49.30;102251.13;5072980;28;49951;-73
2022/05/09 09:24:31;;;;;;;;;24.75;22.00;;;;;19.55;49.28;102227.06;5072240;28;50991;-69
2022/05/09 09:27:32;;;;;;;;;22.00;19.75;;;;;19.72;49.05;102245.88;5073061;28;49769;-69
2022/05/09 09:30:02;;;;;;;;;15.00;15.00;;;;;19.74;48.98;102236.13;5072742;27;49997;-72
2022/05/09 09:32:28;;;;;;;;;17.00;15.00;;;;;19.72;48.54;102228.13;5073213;28;50606;-71
2022/05/09 09:34:59;;;;;;;;;18.75;15.00;;;;;19.95;48.63;102254.00;5072469;28;50049;-69
2022/05/09 09:37:39;;;;;;;;;19.50;17.75;;;;;19.79;48.98;102218.41;5072644;28;49740;-73
2022/05/09 09:40:06;;;;;;;;;18.25;15.50;;;;;19.90;48.72;102224.69;5072157;28;49701;-72
2022/05/09 09:42:32;;;;;;;;;20.25;18.75;;;;;20.08;48.79;102244.31;5072676;28;49630;-70
2022/05/09 09:45:00;;;;;;;;;14.75;14.50;;;;;19.94;48.60;102213.13;5072245;28;49867;-68
2022/05/09 09:47:28;;;;;;;;;23.00;22.50;;;;;20.19;48.17;102243.50;5072959;28;49810;-69
2022/05/09 09:50:16;;;;;;;;;20.00;20.00;;;;;20.22;47.93;102235.50;5072216;28;49731;-69
2022/05/09 09:52:49;;;;;;;;;17.25;15.00;;;;;20.23;47.22;102229.28;5072471;28;49853;-68
2022/05/09 09:55:42;;;;;;;;;20.00;16.00;;;;;20.34;47.33;102241.75;5071662;28;50729;-69
2022/05/09 09:58:27;;;;;;;;;26.50;22.50;;;;;20.36;46.94;102227.53;5071422;28;49667;-69
2022/05/09 10:01:01;;;;;;;;;21.75;18.00;;;;;20.38;46.76;102231.13;5065655;28;49680;-68
2022/05/09 10:03:31;;;;;;;;;20.75;15.25;;;;;20.34;46.75;102215.97;5066256;28;49957;-69
2022/05/09 10:05:58;;;;;;;;;23.75;21.50;;;;;20.41;46.74;102212.44;5072101;28;49833;-73
2022/05/09 10:08:35;;;;;;;;;16.75;16.25;;;;;20.50;46.13;102215.19;5071978;27;49701;-72
2022/05/09 10:11:00;;;;;;;;;19.00;17.50;;;;;20.64;45.68;102223.22;5072251;28;49886;-73
2022/05/09 10:13:35;;;;;;;;;16.50;15.50;;;;;20.72;45.42;102223.22;5072032;28;49910;-70
2022/05/09 10:16:05;;;;;;;;;18.25;17.25;;;;;20.64;45.08;102188.53;5071572;28;50526;-68
2022/05/09 10:18:32;;;;;;;;;16.00;15.25;;;;;20.85;44.73;102209.03;5071763;28;49771;-69
2022/05/09 10:21:17;;;;;;;;;15.75;14.75;;;;;20.92;44.74;102209.91;5071800;28;50011;-73
2022/05/09 10:26:34;;;;;;;;;14.75;14.25;;;;;20.91;44.18;102187.69;5071354;28;49850;-72
2022/05/09 10:29:07;;;;;;;;;18.75;17.00;;;;;21.11;43.44;102209.03;5071714;28;49738;-68
2022/05/09 10:31:50;;;;;;;;;16.25;13.75;;;;;21.17;44.29;102205.50;5071804;27;49581;-69
2022/05/09 10:34:33;;;;;;;;;15.25;15.25;;;;;21.19;43.90;102211.72;5071834;28;49866;-74
2022/05/09 10:37:30;;;;;;;;;14.00;13.75;;;;;21.13;43.42;102188.56;5071398;28;49930;-70
2022/05/09 10:40:05;;;;;;;;;14.25;13.50;;;;;21.25;43.40;102193.03;5069882;28;49767;-68
2022/05/09 10:42:49;;;;;;;;;13.00;12.50;;;;;21.37;43.01;102201.94;5071440;28;49712;-71
2022/05/09 10:45:21;;;;;;;;;13.25;12.25;;;;;21.41;42.14;102202.81;5071672;28;49593;-73
2022/05/09 10:48:05;;;;;;;;;12.00;12.00;;;;;21.49;42.66;102195.69;5069963;28;51704;-73
2022/05/09 10:50:50;;;;;;;;;15.75;15.75;;;;;21.11;41.69;102119.16;5071530;28;49960;-73
2022/05/09 10:53:30;;;;;;;;;15.75;15.75;;;;;21.46;41.59;102174.34;5070878;27;49856;-68
2022/05/09 10:56:08;;;;;;;;;14.25;12.50;;;;;21.59;41.71;102185.88;5071858;28;50005;-69
2022/05/09 10:58:42;;;;;;;;;15.00;13.25;;;;;21.71;41.29;102188.50;5066734;28;50083;-70
2022/05/09 11:01:16;;;;;;;;;13.00;11.25;;;;;21.73;40.50;102169.84;5071178;28;49875;-71
2022/05/09 11:03:44;;;;;;;;;11.75;11.75;;;;;21.77;39.81;102163.56;5071363;27;49723;-72
2022/05/09 11:06:33;;;;;;;;;12.00;12.00;;;;;21.94;39.93;102183.13;5071341;28;49873;-72
2022/05/09 11:09:23;;;;;;;;;20.75;19.00;;;;;21.94;40.25;102181.34;5060018;28;50636;-73
2022/05/09 11:11:51;;;;;;;;;13.75;13.75;;;;;21.98;40.31;102180.41;5071043;28;49773;-74
2022/05/09 11:14:41;;;;;;;;;16.50;12.75;;;;;22.03;40.04;102177.75;5071050;28;49605;-73
2022/05/09 11:17:12;;;;;;;;;18.00;15.00;;;;;22.07;39.56;102179.53;5069692;28;49659;-69
2022/05/09 11:19:50;;;;;;;;;15.75;14.75;;;;;22.09;39.82;102166.13;5069332;28;51909;-68
2022/05/09 11:22:37;;;;;;;;;14.50;13.00;;;;;22.14;40.18;102169.69;5070826;28;49783;-72
2022/05/09 11:25:17;;;;;;;;;18.25;16.50;;;;;22.32;40.00;102166.03;5070709;28;49789;-70
2022/05/09 11:28:02;;;;;;;;;17.75;15.25;;;;;22.17;40.28;102137.56;5071067;28;49785;-74
2022/05/09 11:30:40;;;;;;;;;17.25;14.50;;;;;22.44;39.98;102166.84;5070765;28;50649;-74
2022/05/09 11:33:33;;;;;;;;;13.00;13.00;;;;;22.30;39.57;102128.59;5070550;28;49530;-69